createdAt,value
2022-09-01T00:00:35.779Z,1013.77
2022-09-01T00:01:35.798Z,1013.78
2022-09-01T00:02:35.871Z,1013.76
2022-09-01T00:03:35.776Z,1013.77
2022-09-01T00:04:35.788Z,1013.78
2022-09-01T00:05:35.724Z,1013.79
2022-09-01T00:06:35.741Z,1013.76
2022-09-01T00:07:35.708Z,1013.75
2022-09-01T00:08:35.736Z,1013.78
2022-09-01T00:09:35.696Z,1013.73
2022-09-01T00:10:35.685Z,1013.74
2022-09-01T00:11:35.684Z,1013.72
2022-09-01T00:12:35.655Z,1013.69
2022-09-01T00:13:35.654Z,1013.73
2022-09-01T00:14:38.475Z,1013.71
2022-09-01T00:15:35.693Z,1013.69
2022-09-01T00:16:35.615Z,1013.69
2022-09-01T00:17:35.629Z,1013.68
2022-09-01T00:18:35.605Z,1013.66
2022-09-01T00:19:35.591Z,1013.67
2022-09-01T00:20:35.576Z,1013.64
2022-09-01T00:21:35.551Z,1013.70
2022-09-01T00:22:35.550Z,1013.68
2022-09-01T00:23:35.560Z,1013.69
2022-09-01T00:24:35.531Z,1013.73
2022-09-01T00:25:35.503Z,1013.73
2022-09-01T00:26:35.521Z,1013.69
2022-09-01T00:27:35.507Z,1013.74
2022-09-01T00:28:35.533Z,1013.74
2022-09-01T00:29:35.480Z,1013.76
2022-09-01T00:30:35.464Z,1013.73
2022-09-01T00:31:35.461Z,1013.75
2022-09-01T00:32:35.449Z,1013.79
2022-09-01T00:33:35.433Z,1013.80
2022-09-01T00:34:35.630Z,1013.80
2022-09-01T00:35:37.427Z,1013.81
2022-09-01T00:36:35.389Z,1013.78
2022-09-01T00:37:35.379Z,1013.76
2022-09-01T00:38:35.376Z,1013.75
2022-09-01T00:39:35.344Z,1013.77
2022-09-01T00:40:35.422Z,1013.78
2022-09-01T00:41:35.346Z,1013.74
2022-09-01T00:42:35.330Z,1013.77
2022-09-01T00:43:35.306Z,1013.75
2022-09-01T00:44:35.297Z,1013.74
2022-09-01T00:45:35.325Z,1013.74
2022-09-01T00:46:35.400Z,1013.74
2022-09-01T00:47:35.305Z,1013.73
2022-09-01T00:48:35.250Z,1013.75
2022-09-01T00:49:35.543Z,1013.74
2022-09-01T00:50:35.229Z,1013.75
2022-09-01T00:51:35.241Z,1013.72
2022-09-01T00:52:35.210Z,1013.76
2022-09-01T00:53:35.195Z,1013.73
2022-09-01T00:54:35.180Z,1013.70
2022-09-01T00:55:35.181Z,1013.73
2022-09-01T00:56:35.195Z,1013.76
2022-09-01T00:57:35.168Z,1013.72
2022-09-01T00:58:35.183Z,1013.70
2022-09-01T00:59:35.146Z,1013.73
2022-09-01T01:00:35.143Z,1013.77
2022-09-01T01:01:35.152Z,1013.73
2022-09-01T01:02:35.171Z,1013.75
2022-09-01T01:03:35.074Z,1013.73
2022-09-01T01:04:35.115Z,1013.74
2022-09-01T01:05:35.057Z,1013.77
2022-09-01T01:06:35.068Z,1013.74
2022-09-01T01:07:35.043Z,1013.76
2022-09-01T01:08:35.054Z,1013.73
2022-09-01T01:09:35.008Z,1013.75
2022-09-01T01:10:35.002Z,1013.71
2022-09-01T01:11:35.024Z,1013.73
2022-09-01T01:12:34.986Z,1013.71
2022-09-01T01:13:35.000Z,1013.70
2022-09-01T01:14:35.024Z,1013.70
2022-09-01T01:15:34.940Z,1013.71
2022-09-01T01:16:35.001Z,1013.72
2022-09-01T01:17:34.945Z,1013.72
2022-09-01T01:18:34.944Z,1013.71
2022-09-01T01:19:38.928Z,1013.69
2022-09-01T01:20:34.886Z,1013.73
2022-09-01T01:21:34.878Z,1013.69
2022-09-01T01:22:34.911Z,1013.69
2022-09-01T01:23:34.888Z,1013.66
2022-09-01T01:24:34.879Z,1013.65
2022-09-01T01:25:34.869Z,1013.69
2022-09-01T01:26:34.825Z,1013.69
2022-09-01T01:27:42.815Z,1013.67
2022-09-01T01:28:34.856Z,1013.70
2022-09-01T01:29:34.827Z,1013.68
2022-09-01T01:30:34.823Z,1013.64
2022-09-01T01:31:34.770Z,1013.65
2022-09-01T01:32:34.748Z,1013.68
2022-09-01T01:33:34.788Z,1013.66
2022-09-01T01:34:34.880Z,1013.67
2022-09-01T01:35:34.722Z,1013.71
2022-09-01T01:36:34.697Z,1013.66
2022-09-01T01:37:34.690Z,1013.70
2022-09-01T01:38:34.700Z,1013.70
2022-09-01T01:39:34.696Z,1013.70
2022-09-01T01:40:34.832Z,1013.72
2022-09-01T01:41:34.660Z,1013.72
2022-09-01T01:42:34.712Z,1013.71
2022-09-01T01:43:34.653Z,1013.72
2022-09-01T01:44:34.620Z,1013.73
2022-09-01T01:45:34.630Z,1013.74
2022-09-01T01:46:34.596Z,1013.74
2022-09-01T01:47:34.574Z,1013.75
2022-09-01T01:48:34.640Z,1013.78
2022-09-01T01:49:34.570Z,1013.73
2022-09-01T01:50:34.565Z,1013.72
2022-09-01T01:51:34.526Z,1013.75
2022-09-01T01:52:34.569Z,1013.80
2022-09-01T01:53:34.543Z,1013.75
2022-09-01T01:54:34.513Z,1013.76
2022-09-01T01:55:34.488Z,1013.80
2022-09-01T01:56:34.475Z,1013.77
2022-09-01T01:57:34.469Z,1013.78
2022-09-01T01:58:34.470Z,1013.82
2022-09-01T01:59:34.464Z,1013.82
2022-09-01T02:00:34.469Z,1013.85
2022-09-01T02:01:34.501Z,1013.85
2022-09-01T02:02:34.443Z,1013.82
2022-09-01T02:03:34.413Z,1013.83
2022-09-01T02:04:34.424Z,1013.83
2022-09-01T02:05:34.380Z,1013.87
2022-09-01T02:06:34.400Z,1013.84
2022-09-01T02:07:34.378Z,1013.86
2022-09-01T02:08:34.343Z,1013.86
2022-09-01T02:09:34.367Z,1013.83
2022-09-01T02:10:34.349Z,1013.88
2022-09-01T02:11:34.297Z,1013.84
2022-09-01T02:12:34.321Z,1013.84
2022-09-01T02:13:34.304Z,1013.87
2022-09-01T02:14:34.310Z,1013.84
2022-09-01T02:15:34.270Z,1013.82
2022-09-01T02:16:34.294Z,1013.84
2022-09-01T02:17:34.252Z,1013.84
2022-09-01T02:18:34.228Z,1013.82
2022-09-01T02:19:34.241Z,1013.85
2022-09-01T02:20:34.206Z,1013.87
2022-09-01T02:21:34.195Z,1013.89
2022-09-01T02:22:34.185Z,1013.85
2022-09-01T02:23:34.168Z,1013.88
2022-09-01T02:24:34.198Z,1013.85
2022-09-01T02:25:34.146Z,1013.86
2022-09-01T02:26:34.142Z,1013.85
2022-09-01T02:27:34.123Z,1013.85
2022-09-01T02:28:34.135Z,1013.85
2022-09-01T02:29:41.857Z,1013.80
2022-09-01T02:30:34.124Z,1013.82
2022-09-01T02:31:34.112Z,1013.81
2022-09-01T02:32:34.092Z,1013.81
2022-09-01T02:33:34.065Z,1013.82
2022-09-01T02:34:34.059Z,1013.81
2022-09-01T02:35:34.041Z,1013.77
2022-09-01T02:36:34.014Z,1013.79
2022-09-01T02:37:34.006Z,1013.79
2022-09-01T02:38:34.001Z,1013.78
2022-09-01T02:39:33.999Z,1013.81
2022-09-01T02:40:34.031Z,1013.74
2022-09-01T02:41:33.955Z,1013.76
2022-09-01T02:42:33.978Z,1013.76
2022-09-01T02:43:33.946Z,1013.74
2022-09-01T02:44:36.286Z,1013.76
2022-09-01T02:45:33.996Z,1013.79
2022-09-01T02:46:33.905Z,1013.78
2022-09-01T02:47:33.944Z,1013.77
2022-09-01T02:48:33.884Z,1013.78
2022-09-01T02:49:33.924Z,1013.77
2022-09-01T02:50:33.856Z,1013.78
2022-09-01T02:51:33.852Z,1013.75
2022-09-01T02:52:33.846Z,1013.75
2022-09-01T02:53:33.831Z,1013.73
2022-09-01T02:54:33.840Z,1013.76
2022-09-01T02:55:33.806Z,1013.77
2022-09-01T02:56:33.801Z,1013.76
2022-09-01T02:57:33.777Z,1013.77
2022-09-01T02:58:33.773Z,1013.73
2022-09-01T02:59:33.787Z,1013.77
2022-09-01T03:00:33.743Z,1013.79
2022-09-01T03:01:33.805Z,1013.77
2022-09-01T03:02:33.719Z,1013.75
2022-09-01T03:03:33.708Z,1013.75
2022-09-01T03:04:33.942Z,1013.78
2022-09-01T03:05:33.703Z,1013.72
2022-09-01T03:06:33.673Z,1013.73
2022-09-01T03:07:33.676Z,1013.73
2022-09-01T03:08:33.655Z,1013.72
2022-09-01T03:09:33.639Z,1013.71
2022-09-01T03:10:33.673Z,1013.73
2022-09-01T03:11:33.657Z,1013.76
2022-09-01T03:12:33.665Z,1013.74
2022-09-01T03:13:33.609Z,1013.78
2022-09-01T03:14:33.611Z,1013.78
2022-09-01T03:15:33.604Z,1013.81
2022-09-01T03:16:33.691Z,1013.80
2022-09-01T03:17:33.550Z,1013.79
2022-09-01T03:18:33.549Z,1013.82
2022-09-01T03:19:33.535Z,1013.81
2022-09-01T03:20:33.569Z,1013.80
2022-09-01T03:21:33.529Z,1013.81
2022-09-01T03:22:33.563Z,1013.81
2022-09-01T03:23:33.524Z,1013.80
2022-09-01T03:24:33.506Z,1013.84
2022-09-01T03:25:33.502Z,1013.82
2022-09-01T03:26:33.501Z,1013.86
2022-09-01T03:27:33.455Z,1013.83
2022-09-01T03:28:33.454Z,1013.83
2022-09-01T03:29:33.437Z,1013.84
2022-09-01T03:30:33.412Z,1013.86
2022-09-01T03:31:33.450Z,1013.81
2022-09-01T03:32:33.386Z,1013.85
2022-09-01T03:33:33.391Z,1013.83
2022-09-01T03:34:33.392Z,1013.82
2022-09-01T03:35:33.352Z,1013.82
2022-09-01T03:36:33.403Z,1013.82
2022-09-01T03:37:33.373Z,1013.82
2022-09-01T03:38:33.325Z,1013.84
2022-09-01T03:39:33.321Z,1013.88
2022-09-01T03:40:33.376Z,1013.82
2022-09-01T03:41:33.308Z,1013.82
2022-09-01T03:42:33.277Z,1013.80
2022-09-01T03:43:35.514Z,1013.82
2022-09-01T03:44:33.254Z,1013.83
2022-09-01T03:45:33.261Z,1013.80
2022-09-01T03:46:36.859Z,1013.79
2022-09-01T03:47:33.217Z,1013.81
2022-09-01T03:48:33.207Z,1013.80
2022-09-01T03:49:33.205Z,1013.76
2022-09-01T03:50:33.189Z,1013.74
2022-09-01T03:51:33.185Z,1013.76
2022-09-01T03:52:33.167Z,1013.73
2022-09-01T03:53:33.148Z,1013.73
2022-09-01T03:54:33.152Z,1013.74
2022-09-01T03:55:33.123Z,1013.72
2022-09-01T03:56:33.181Z,1013.77
2022-09-01T03:57:33.098Z,1013.77
2022-09-01T03:58:33.117Z,1013.75
2022-09-01T03:59:33.081Z,1013.75
2022-09-01T04:00:33.084Z,1013.73
2022-09-01T04:01:33.095Z,1013.73
2022-09-01T04:02:33.079Z,1013.71
2022-09-01T04:03:33.041Z,1013.73
2022-09-01T04:04:33.068Z,1013.73
2022-09-01T04:05:33.044Z,1013.75
2022-09-01T04:06:33.038Z,1013.76
2022-09-01T04:07:33.025Z,1013.71
2022-09-01T04:08:33.222Z,1013.75
2022-09-01T04:09:32.969Z,1013.72
2022-09-01T04:10:32.979Z,1013.71
2022-09-01T04:11:32.980Z,1013.71
2022-09-01T04:12:32.973Z,1013.72
2022-09-01T04:13:32.927Z,1013.70
2022-09-01T04:14:32.909Z,1013.69
2022-09-01T04:15:32.918Z,1013.71
2022-09-01T04:16:32.950Z,1013.73
2022-09-01T04:17:32.917Z,1013.74
2022-09-01T04:18:32.890Z,1013.73
2022-09-01T04:19:32.863Z,1013.75
2022-09-01T04:20:32.859Z,1013.76
2022-09-01T04:21:32.845Z,1013.76
2022-09-01T04:22:32.854Z,1013.80
2022-09-01T04:23:32.845Z,1013.79
2022-09-01T04:24:32.821Z,1013.75
2022-09-01T04:25:32.795Z,1013.77
2022-09-01T04:26:32.790Z,1013.79
2022-09-01T04:27:32.779Z,1013.77
2022-09-01T04:28:32.777Z,1013.80
2022-09-01T04:29:32.798Z,1013.78
2022-09-01T04:30:32.737Z,1013.77
2022-09-01T04:31:32.785Z,1013.78
2022-09-01T04:32:32.713Z,1013.78
2022-09-01T04:33:32.726Z,1013.77
2022-09-01T04:34:32.706Z,1013.78
2022-09-01T04:35:32.718Z,1013.75
2022-09-01T04:36:32.671Z,1013.77
2022-09-01T04:37:32.660Z,1013.78
2022-09-01T04:38:32.710Z,1013.74
2022-09-01T04:39:32.649Z,1013.72
2022-09-01T04:40:32.745Z,1013.72
2022-09-01T04:41:32.628Z,1013.74
2022-09-01T04:42:32.798Z,1013.73
2022-09-01T04:43:32.633Z,1013.71
2022-09-01T04:44:32.587Z,1013.69
2022-09-01T04:45:32.616Z,1013.70
2022-09-01T04:46:32.579Z,1013.69
2022-09-01T04:47:36.151Z,1013.75
2022-09-01T04:48:32.561Z,1013.75
2022-09-01T04:49:32.545Z,1013.77
2022-09-01T04:50:32.518Z,1013.73
2022-09-01T04:51:32.510Z,1013.71
2022-09-01T04:52:32.502Z,1013.72
2022-09-01T04:53:32.522Z,1013.69
2022-09-01T04:54:32.483Z,1013.70
2022-09-01T04:55:32.472Z,1013.71
2022-09-01T04:56:32.479Z,1013.68
2022-09-01T04:57:32.453Z,1013.70
2022-09-01T04:58:32.445Z,1013.70
2022-09-01T04:59:32.451Z,1013.67
2022-09-01T05:00:32.474Z,1013.66
2022-09-01T05:01:32.413Z,1013.66
2022-09-01T05:02:32.393Z,1013.66
2022-09-01T05:03:32.388Z,1013.66
2022-09-01T05:04:32.391Z,1013.67
2022-09-01T05:05:32.362Z,1013.66
2022-09-01T05:06:32.342Z,1013.63
2022-09-01T05:07:32.330Z,1013.66
2022-09-01T05:08:32.807Z,1013.62
2022-09-01T05:09:32.325Z,1013.70
2022-09-01T05:10:32.297Z,1013.66
2022-09-01T05:11:32.288Z,1013.60
2022-09-01T05:12:32.291Z,1013.62
2022-09-01T05:13:32.265Z,1013.65
2022-09-01T05:14:32.296Z,1013.66
2022-09-01T05:15:32.245Z,1013.72
2022-09-01T05:16:32.288Z,1013.73
2022-09-01T05:17:32.229Z,1013.73
2022-09-01T05:18:32.225Z,1013.73
2022-09-01T05:19:32.227Z,1013.76
2022-09-01T05:20:32.193Z,1013.74
2022-09-01T05:21:32.188Z,1013.80
2022-09-01T05:22:32.181Z,1013.80
2022-09-01T05:23:32.155Z,1013.74
2022-09-01T05:24:32.175Z,1013.77
2022-09-01T05:25:32.165Z,1013.74
2022-09-01T05:26:32.136Z,1013.73
2022-09-01T05:27:32.108Z,1013.69
2022-09-01T05:28:32.139Z,1013.73
2022-09-01T05:29:32.109Z,1013.73
2022-09-01T05:30:32.088Z,1013.73
2022-09-01T05:31:32.092Z,1013.72
2022-09-01T05:32:32.062Z,1013.72
2022-09-01T05:33:32.075Z,1013.73
2022-09-01T05:34:32.058Z,1013.74
2022-09-01T05:35:33.042Z,1013.78
2022-09-01T05:36:32.063Z,1013.73
2022-09-01T05:37:32.029Z,1013.73
2022-09-01T05:38:32.015Z,1013.73
2022-09-01T05:39:32.043Z,1013.76
2022-09-01T05:40:32.069Z,1013.77
2022-09-01T05:41:31.999Z,1013.77
2022-09-01T05:42:31.963Z,1013.75
2022-09-01T05:43:31.938Z,1013.73
2022-09-01T05:44:32.824Z,1013.75
2022-09-01T05:45:44.923Z,1013.76
2022-09-01T05:46:31.960Z,1013.75
2022-09-01T05:47:31.924Z,1013.75
2022-09-01T05:48:31.909Z,1013.76
2022-09-01T05:49:31.917Z,1013.77
2022-09-01T05:50:31.860Z,1013.76
2022-09-01T05:51:50.554Z,1013.77
2022-09-01T05:52:31.853Z,1013.79
2022-09-01T05:53:31.829Z,1013.81
2022-09-01T05:54:31.831Z,1013.83
2022-09-01T05:55:31.819Z,1013.83
2022-09-01T05:56:31.791Z,1013.77
2022-09-01T05:57:34.808Z,1013.79
2022-09-01T05:59:22.592Z,1013.84
2022-09-01T05:59:31.790Z,1013.84
2022-09-01T06:00:31.938Z,1013.85
2022-09-01T06:01:31.753Z,1013.84
2022-09-01T06:02:31.940Z,1013.84
2022-09-01T06:03:31.904Z,1013.88
2022-09-01T06:04:31.738Z,1013.87
2022-09-01T06:05:31.723Z,1013.82
2022-09-01T06:06:43.797Z,1013.87
2022-09-01T06:07:31.736Z,1013.86
2022-09-01T06:08:31.718Z,1013.82
2022-09-01T06:09:31.710Z,1013.83
2022-09-01T06:10:31.666Z,1013.85
2022-09-01T06:11:31.630Z,1013.85
2022-09-01T06:12:31.695Z,1013.86
2022-09-01T06:13:31.611Z,1013.86
2022-09-01T06:14:31.611Z,1013.88
2022-09-01T06:15:31.590Z,1013.86
2022-09-01T06:16:31.629Z,1013.89
2022-09-01T06:17:31.985Z,1013.90
2022-09-01T06:18:31.617Z,1013.87
2022-09-01T06:19:36.741Z,1013.93
2022-09-01T06:20:31.536Z,1013.88
2022-09-01T06:21:31.514Z,1013.90
2022-09-01T06:22:31.508Z,1013.90
2022-09-01T06:23:31.494Z,1013.90
2022-09-01T06:24:31.503Z,1013.92
2022-09-01T06:25:31.466Z,1013.89
2022-09-01T06:26:31.480Z,1013.89
2022-09-01T06:27:31.554Z,1013.84
2022-09-01T06:28:31.435Z,1013.87
2022-09-01T06:29:31.455Z,1013.87
2022-09-01T06:30:31.534Z,1013.86
2022-09-01T06:31:31.451Z,1013.88
2022-09-01T06:32:31.398Z,1013.87
2022-09-01T06:33:31.409Z,1013.89
2022-09-01T06:34:31.393Z,1013.86
2022-09-01T06:35:31.354Z,1013.89
2022-09-01T06:36:34.971Z,1013.87
2022-09-01T06:37:31.328Z,1013.89
2022-09-01T06:38:31.348Z,1013.89
2022-09-01T06:39:31.424Z,1013.89
2022-09-01T06:40:31.368Z,1013.93
2022-09-01T06:41:31.283Z,1013.89
2022-09-01T06:42:31.275Z,1013.91
2022-09-01T06:43:31.260Z,1013.91
2022-09-01T06:44:31.274Z,1013.87
2022-09-01T06:45:31.241Z,1013.91
2022-09-01T06:46:31.285Z,1013.88
2022-09-01T06:47:31.218Z,1013.90
2022-09-01T06:48:31.247Z,1013.92
2022-09-01T06:49:31.214Z,1013.91
2022-09-01T06:51:31.179Z,1013.91
2022-09-01T06:53:32.130Z,1013.92
2022-09-01T06:53:45.916Z,1013.90
2022-09-01T06:54:31.142Z,1013.92
2022-09-01T06:55:31.163Z,1013.90
2022-09-01T06:56:32.323Z,1013.94
2022-09-01T06:58:31.103Z,1013.93
2022-09-01T06:59:34.588Z,1013.95
2022-09-01T07:00:31.087Z,1013.96
2022-09-01T07:01:31.172Z,1013.98
2022-09-01T07:02:31.872Z,1013.95
2022-09-01T07:03:31.038Z,1013.97
2022-09-01T07:04:31.047Z,1014.03
2022-09-01T07:08:31.000Z,1014.04
2022-09-01T07:09:38.503Z,1014.06
2022-09-01T07:10:30.974Z,1014.04
2022-09-01T07:12:30.952Z,1014.04
2022-09-01T07:13:30.939Z,1014.05
2022-09-01T07:14:30.984Z,1014.05
2022-09-01T07:16:33.401Z,1014.08
2022-09-01T07:43:06.622Z,1014.05
2022-09-01T07:43:11.738Z,1014.07
2022-09-01T07:44:11.769Z,1014.02
2022-09-01T07:45:27.995Z,1014.00
2022-09-01T07:47:20.221Z,1013.98
2022-09-01T07:48:11.736Z,1014.02
2022-09-01T07:50:25.204Z,1014.02
2022-09-01T07:52:11.643Z,1014.01
2022-09-01T07:53:11.627Z,1014.00
2022-09-01T07:54:11.620Z,1013.97
2022-09-01T07:55:11.592Z,1014.00
2022-09-01T07:56:11.577Z,1013.99
2022-09-01T07:57:11.576Z,1014.01
2022-09-01T07:58:11.560Z,1014.02
2022-09-01T07:59:15.259Z,1014.08
2022-09-01T08:00:11.537Z,1014.02
2022-09-01T08:01:11.525Z,1014.04
2022-09-01T08:02:11.651Z,1014.01
2022-09-01T08:03:11.609Z,1014.05
2022-09-01T08:04:11.519Z,1014.02
2022-09-01T08:05:11.492Z,1014.02
2022-09-01T08:06:11.488Z,1014.01
2022-09-01T08:07:15.424Z,1013.99
2022-09-01T08:08:19.171Z,1014.01
2022-09-01T08:09:25.325Z,1013.97
2022-09-01T08:10:11.446Z,1014.00
2022-09-01T08:11:11.411Z,1013.99
2022-09-01T08:12:11.410Z,1013.97
2022-09-01T08:13:15.428Z,1013.95
2022-09-01T08:14:11.421Z,1013.94
2022-09-01T08:15:40.534Z,1013.94
2022-09-01T08:16:18.977Z,1013.94
2022-09-01T08:17:34.378Z,1013.95
2022-09-01T08:18:14.278Z,1013.93
2022-09-01T08:19:18.607Z,1013.95
2022-09-01T08:20:12.946Z,1013.98
2022-09-01T08:21:11.348Z,1013.99
2022-09-01T08:22:11.313Z,1013.97
2022-09-01T08:23:11.319Z,1014.00
2022-09-01T08:24:11.289Z,1014.01
2022-09-01T08:25:11.258Z,1013.98
2022-09-01T08:26:11.262Z,1014.04
2022-09-01T08:27:11.236Z,1014.03
2022-09-01T08:28:11.265Z,1014.03
2022-09-01T08:29:11.244Z,1014.08
2022-09-01T08:30:11.202Z,1014.06
2022-09-01T08:31:11.519Z,1014.09
2022-09-01T08:32:11.182Z,1013.99
2022-09-01T08:33:11.249Z,1014.02
2022-09-01T08:34:11.172Z,1014.03
2022-09-01T08:35:11.155Z,1013.99
2022-09-01T08:36:11.147Z,1014.01
2022-09-01T08:37:11.127Z,1013.94
2022-09-01T08:38:11.148Z,1013.99
2022-09-01T08:39:11.126Z,1013.97
2022-09-01T08:40:11.186Z,1013.99
2022-09-01T08:41:11.086Z,1014.01
2022-09-01T08:42:11.067Z,1014.02
2022-09-01T08:43:15.298Z,1014.08
2022-09-01T08:44:11.085Z,1014.02
2022-09-01T08:45:11.034Z,1014.03
2022-09-01T08:46:11.052Z,1014.01
2022-09-01T08:47:12.858Z,1014.00
2022-09-01T08:49:27.312Z,1014.00
2022-09-01T08:50:10.987Z,1013.99
2022-09-01T08:51:15.086Z,1014.02
2022-09-01T08:52:10.976Z,1014.00
2022-09-01T08:53:10.947Z,1014.00
2022-09-01T08:54:10.969Z,1014.03
2022-09-01T08:55:10.933Z,1013.99
2022-09-01T08:56:10.908Z,1013.99
2022-09-01T08:57:10.962Z,1013.97
2022-09-01T08:58:10.887Z,1013.98
2022-09-01T08:59:10.899Z,1014.01
2022-09-01T09:00:10.948Z,1013.98
2022-09-01T09:01:10.877Z,1013.96
2022-09-01T09:02:10.892Z,1014.01
2022-09-01T09:03:10.906Z,1013.95
2022-09-01T09:04:10.842Z,1013.95
2022-09-01T09:05:18.041Z,1013.91
2022-09-01T09:06:10.800Z,1013.93
2022-09-01T09:07:10.837Z,1013.92
2022-09-01T09:08:10.781Z,1013.97
2022-09-01T09:09:10.780Z,1013.93
2022-09-01T09:10:10.746Z,1013.92
2022-09-01T09:11:10.746Z,1013.94
2022-09-01T09:12:10.737Z,1013.93
2022-09-01T09:13:10.721Z,1013.89
2022-09-01T09:14:10.730Z,1013.94
2022-09-01T09:15:10.700Z,1013.85
2022-09-01T09:16:10.764Z,1013.90
2022-09-01T09:17:10.675Z,1013.85
2022-09-01T09:18:20.011Z,1013.81
2022-09-01T09:19:10.740Z,1013.85
2022-09-01T09:20:10.643Z,1013.82
2022-09-01T09:21:10.627Z,1013.83
2022-09-01T09:22:11.337Z,1013.80
2022-09-01T09:23:10.618Z,1013.84
2022-09-01T09:24:10.622Z,1013.82
2022-09-01T09:25:10.602Z,1013.84
2022-09-01T09:26:10.953Z,1013.84
2022-09-01T09:27:11.183Z,1013.77
2022-09-01T09:28:10.578Z,1013.75
2022-09-01T09:29:10.565Z,1013.76
2022-09-01T09:30:11.809Z,1013.77
2022-09-01T09:31:10.590Z,1013.74
2022-09-01T09:32:44.197Z,1013.73
2022-09-01T09:33:47.621Z,1013.74
2022-09-01T09:34:10.529Z,1013.68
2022-09-01T09:35:10.506Z,1013.66
2022-09-01T09:36:10.491Z,1013.65
2022-09-01T09:37:10.464Z,1013.63
2022-09-01T09:38:10.449Z,1013.74
2022-09-01T09:39:10.459Z,1013.68
2022-09-01T09:40:10.652Z,1013.68
2022-09-01T09:41:17.297Z,1013.71
2022-09-01T09:42:10.411Z,1013.65
2022-09-01T09:43:10.392Z,1013.65
2022-09-01T09:44:11.468Z,1013.64
2022-09-01T09:45:10.368Z,1013.59
2022-09-01T09:46:23.343Z,1013.70
2022-09-01T09:47:33.353Z,1013.72
2022-09-01T09:48:11.001Z,1013.61
2022-09-01T09:49:10.340Z,1013.66
2022-09-01T09:50:10.320Z,1013.65
2022-09-01T09:51:10.488Z,1013.65
2022-09-01T09:52:10.568Z,1013.63
2022-09-01T09:53:10.282Z,1013.63
2022-09-01T09:54:10.293Z,1013.62
2022-09-01T09:55:10.250Z,1013.60
2022-09-01T09:56:10.250Z,1013.56
2022-09-01T09:57:10.234Z,1013.57
2022-09-01T09:58:10.227Z,1013.59
2022-09-01T09:59:10.228Z,1013.55
2022-09-01T10:00:11.252Z,1013.57
2022-09-01T10:01:10.221Z,1013.51
2022-09-01T10:02:10.182Z,1013.56
2022-09-01T10:03:11.238Z,1013.53
2022-09-01T10:04:10.222Z,1013.52
2022-09-01T10:05:10.142Z,1013.52
2022-09-01T10:06:10.145Z,1013.46
2022-09-01T10:07:10.129Z,1013.56
2022-09-01T10:08:10.122Z,1013.60
2022-09-01T10:09:10.130Z,1013.52
2022-09-01T10:10:10.097Z,1013.53
2022-09-01T10:11:10.078Z,1013.55
2022-09-01T10:12:10.098Z,1013.48
2022-09-01T10:13:10.051Z,1013.48
2022-09-01T10:14:10.063Z,1013.48
2022-09-01T10:15:14.116Z,1013.51
2022-09-01T10:16:10.563Z,1013.46
2022-09-01T10:17:10.152Z,1013.44
2022-09-01T10:19:12.949Z,1013.45
2022-09-01T10:20:11.474Z,1013.49
2022-09-01T10:21:09.981Z,1013.46
2022-09-01T10:22:09.965Z,1013.45
2022-09-01T10:23:11.866Z,1013.45
2022-09-01T10:24:17.881Z,1013.43
2022-09-01T10:25:10.368Z,1013.43
2022-09-01T10:26:09.913Z,1013.41
2022-09-01T10:27:14.322Z,1013.43
2022-09-01T10:28:09.900Z,1013.35
2022-09-01T10:29:12.124Z,1013.35
2022-09-01T10:30:14.221Z,1013.35
2022-09-01T10:31:09.938Z,1013.33
2022-09-01T10:32:31.414Z,1013.31
2022-09-01T10:33:19.321Z,1013.34
2022-09-01T10:34:09.859Z,1013.34
2022-09-01T10:35:09.860Z,1013.28
2022-09-01T10:36:09.802Z,1013.28
2022-09-01T10:37:10.562Z,1013.34
2022-09-01T10:38:11.944Z,1013.27
2022-09-01T10:39:09.796Z,1013.28
2022-09-01T10:40:09.907Z,1013.37
2022-09-01T10:41:14.099Z,1013.31
2022-09-01T10:42:09.763Z,1013.30
2022-09-01T10:43:12.437Z,1013.23
2022-09-01T10:44:09.748Z,1013.25
2022-09-01T10:45:09.701Z,1013.26
2022-09-01T10:46:15.286Z,1013.22
2022-09-01T10:47:13.495Z,1013.23
2022-09-01T10:48:13.230Z,1013.19
2022-09-01T10:49:09.795Z,1013.22
2022-09-01T10:50:09.809Z,1013.20
2022-09-01T10:51:09.654Z,1013.24
2022-09-01T10:52:13.150Z,1013.22
2022-09-01T10:53:09.619Z,1013.23
2022-09-01T10:54:09.636Z,1013.17
2022-09-01T10:55:09.628Z,1013.15
2022-09-01T10:56:20.044Z,1013.17
2022-09-01T10:57:12.169Z,1013.15
2022-09-01T10:59:30.862Z,1013.20
2022-09-01T10:59:41.890Z,1013.18
2022-09-01T11:00:34.906Z,1013.20
2022-09-01T11:01:11.211Z,1013.09
2022-09-01T11:02:27.496Z,1013.09
2022-09-01T11:04:09.596Z,1013.09
2022-09-01T11:05:09.547Z,1013.12
2022-09-01T11:06:13.273Z,1013.07
2022-09-01T11:07:12.802Z,1013.09
2022-09-01T11:08:16.719Z,1013.14
2022-09-01T11:09:09.469Z,1013.12
2022-09-01T11:10:11.817Z,1013.10
2022-09-01T11:11:09.462Z,1013.09
2022-09-01T11:12:09.425Z,1013.03
2022-09-01T11:13:09.402Z,1013.05
2022-09-01T11:14:09.440Z,1013.03
2022-09-01T11:15:09.383Z,1012.96
2022-09-01T11:16:10.166Z,1012.90
2022-09-01T11:17:09.424Z,1013.01
2022-09-01T11:18:09.419Z,1013.04
2022-09-01T11:19:15.574Z,1013.01
2022-09-01T11:20:09.374Z,1013.07
2022-09-01T11:21:09.311Z,1013.08
2022-09-01T11:22:09.308Z,1013.07
2022-09-01T11:23:09.306Z,1013.05
2022-09-01T11:24:09.328Z,1013.07
2022-09-01T11:25:11.641Z,1013.05
2022-09-01T11:26:24.727Z,1013.08
2022-09-01T11:27:09.274Z,1013.05
2022-09-01T11:28:09.235Z,1013.04
2022-09-01T11:29:09.275Z,1013.07
2022-09-01T11:30:09.218Z,1013.02
2022-09-01T11:31:09.210Z,1013.04
2022-09-01T11:32:09.269Z,1013.01
2022-09-01T11:33:09.205Z,1013.02
2022-09-01T11:34:09.190Z,1013.06
2022-09-01T11:35:09.249Z,1013.04
2022-09-01T11:36:09.152Z,1013.02
2022-09-01T11:37:09.134Z,1013.03
2022-09-01T11:38:09.153Z,1013.04
2022-09-01T11:39:09.161Z,1013.02
2022-09-01T11:40:09.166Z,1013.06
2022-09-01T11:41:09.102Z,1013.02
2022-09-01T11:42:09.125Z,1013.03
2022-09-01T11:43:19.967Z,1013.06
2022-09-01T11:44:09.237Z,1013.01
2022-09-01T11:45:09.067Z,1013.02
2022-09-01T11:46:09.079Z,1012.97
2022-09-01T11:47:14.034Z,1013.03
2022-09-01T11:48:09.140Z,1013.01
2022-09-01T11:49:09.049Z,1013.01
2022-09-01T11:50:09.173Z,1012.97
2022-09-01T11:51:14.749Z,1012.97
2022-09-01T11:52:08.994Z,1013.01
2022-09-01T11:53:08.976Z,1012.99
2022-09-01T11:54:09.047Z,1013.00
2022-09-01T11:55:08.951Z,1012.97
2022-09-01T11:56:08.932Z,1012.99
2022-09-01T11:57:08.998Z,1012.98
2022-09-01T11:58:08.913Z,1013.06
2022-09-01T11:59:09.085Z,1013.02
2022-09-01T12:00:09.001Z,1013.00
2022-09-01T12:01:08.881Z,1012.99
2022-09-01T12:02:08.998Z,1013.00
2022-09-01T12:03:08.998Z,1013.02
2022-09-01T12:04:08.874Z,1012.99
2022-09-01T12:05:08.875Z,1012.96
2022-09-01T12:06:08.855Z,1013.01
2022-09-01T12:07:10.779Z,1012.98
2022-09-01T12:08:08.801Z,1012.93
2022-09-01T12:09:08.807Z,1012.94
2022-09-01T12:10:08.795Z,1012.98
2022-09-01T12:11:08.782Z,1012.93
2022-09-01T12:12:08.753Z,1012.92
2022-09-01T12:13:08.768Z,1012.88
2022-09-01T12:14:11.382Z,1012.88
2022-09-01T12:15:08.739Z,1012.87
2022-09-01T12:16:24.068Z,1012.92
2022-09-01T12:17:08.804Z,1012.91
2022-09-01T12:18:08.708Z,1012.87
2022-09-01T12:19:08.682Z,1012.88
2022-09-01T12:20:08.703Z,1012.84
2022-09-01T12:21:08.672Z,1012.77
2022-09-01T12:22:08.655Z,1012.84
2022-09-01T12:23:08.677Z,1012.84
2022-09-01T12:24:08.641Z,1012.87
2022-09-01T12:25:08.631Z,1012.89
2022-09-01T12:26:08.621Z,1012.86
2022-09-01T12:27:08.597Z,1012.85
2022-09-01T12:28:11.117Z,1012.85
2022-09-01T12:29:08.580Z,1012.86
2022-09-01T12:30:08.588Z,1012.87
2022-09-01T12:31:08.553Z,1012.84
2022-09-01T12:32:08.575Z,1012.80
2022-09-01T12:33:34.027Z,1012.75
2022-09-01T12:34:08.534Z,1012.82
2022-09-01T12:35:11.516Z,1012.78
2022-09-01T12:36:08.502Z,1012.88
2022-09-01T12:37:08.491Z,1012.73
2022-09-01T12:38:09.726Z,1012.80
2022-09-01T12:39:08.474Z,1012.77
2022-09-01T12:40:08.561Z,1012.75
2022-09-01T12:41:08.513Z,1012.73
2022-09-01T12:42:08.441Z,1012.78
2022-09-01T12:43:08.435Z,1012.74